createdAt,value
2019-01-08T00:02:04.266Z,28.37
2019-01-08T00:04:32.981Z,26.07
2019-01-08T00:07:01.965Z,27.93
2019-01-08T00:09:33.005Z,24.17
2019-01-08T00:12:01.673Z,24.87
2019-01-08T00:14:30.365Z,23.17
2019-01-08T00:16:58.666Z,25.33
2019-01-08T00:19:27.321Z,22.40
2019-01-08T00:21:56.017Z,24.27
2019-01-08T00:24:24.739Z,25.10
2019-01-08T00:26:53.379Z,25.23
2019-01-08T00:29:22.069Z,23.00
2019-01-08T00:31:50.774Z,23.73
2019-01-08T00:34:19.432Z,25.77
2019-01-08T00:36:48.321Z,23.07
2019-01-08T00:39:16.731Z,23.10
2019-01-08T00:41:45.509Z,21.60
2019-01-08T00:44:14.390Z,21.70
2019-01-08T00:46:43.090Z,22.30
2019-01-08T00:49:11.859Z,21.70
2019-01-08T00:51:40.654Z,23.37
2019-01-08T00:54:09.346Z,21.30
2019-01-08T00:56:40.471Z,23.90
2019-01-08T00:59:09.392Z,20.57
2019-01-08T01:01:37.760Z,23.23
2019-01-08T01:04:06.326Z,20.20
2019-01-08T01:06:35.030Z,21.17
2019-01-08T01:09:05.933Z,23.30
2019-01-08T01:11:40.153Z,21.87
2019-01-08T01:14:08.858Z,22.33
2019-01-08T01:16:37.598Z,22.83
2019-01-08T01:19:05.934Z,23.20
2019-01-08T01:21:34.278Z,21.70
2019-01-08T01:24:02.980Z,25.17
2019-01-08T01:26:31.252Z,24.10
2019-01-08T01:29:00.460Z,23.20
2019-01-08T01:31:28.842Z,24.97
2019-01-08T01:33:57.301Z,22.47
2019-01-08T01:36:25.782Z,23.80
2019-01-08T01:38:54.274Z,23.10
2019-01-08T01:41:22.673Z,22.37
2019-01-08T01:43:51.024Z,23.63
2019-01-08T01:46:19.722Z,21.73
2019-01-08T01:48:48.501Z,23.00
2019-01-08T01:51:17.797Z,23.43
2019-01-08T01:53:46.385Z,23.67
2019-01-08T01:56:15.093Z,22.10
2019-01-08T01:58:43.734Z,22.10
2019-01-08T02:01:12.470Z,19.97
2019-01-08T02:03:41.342Z,19.90
2019-01-08T02:06:10.008Z,22.80
2019-01-08T02:08:38.693Z,23.00
2019-01-08T02:11:07.397Z,24.10
2019-01-08T02:13:36.065Z,23.07
2019-01-08T02:16:04.741Z,22.93
2019-01-08T02:18:33.038Z,19.50
2019-01-08T02:21:01.754Z,20.53
2019-01-08T02:23:30.190Z,21.47
2019-01-08T02:25:59.063Z,19.57
2019-01-08T02:28:27.775Z,21.80
2019-01-08T02:30:56.235Z,20.53
2019-01-08T02:33:24.531Z,19.53
2019-01-08T02:35:52.818Z,22.80
2019-01-08T02:38:21.278Z,23.10
2019-01-08T02:40:50.487Z,20.13
2019-01-08T02:43:19.890Z,22.37
2019-01-08T02:45:48.575Z,19.27
2019-01-08T02:48:17.278Z,22.20
2019-01-08T02:50:45.942Z,19.93
2019-01-08T02:53:14.209Z,21.83
2019-01-08T02:55:42.926Z,21.70
2019-01-08T02:58:11.583Z,20.47
2019-01-08T03:00:40.262Z,20.90
2019-01-08T03:03:08.990Z,23.50
2019-01-08T03:05:37.632Z,20.17
2019-01-08T03:08:06.330Z,24.30
2019-01-08T03:10:35.029Z,20.00
2019-01-08T03:13:03.274Z,19.63
2019-01-08T03:15:37.329Z,23.50
2019-01-08T03:18:05.677Z,21.63
2019-01-08T03:20:34.258Z,20.40
2019-01-08T03:23:02.965Z,20.67
2019-01-08T03:25:31.840Z,21.03
2019-01-08T03:28:00.519Z,21.70
2019-01-08T03:30:28.818Z,21.27
2019-01-08T03:32:57.265Z,20.43
2019-01-08T03:35:25.967Z,20.97
2019-01-08T03:37:54.662Z,20.87
2019-01-08T03:40:23.334Z,18.30
2019-01-08T03:42:52.026Z,19.70
2019-01-08T03:45:20.712Z,22.00
2019-01-08T03:47:48.966Z,21.10
2019-01-08T03:50:17.666Z,19.30
2019-01-08T03:52:46.365Z,19.53
2019-01-08T03:55:15.040Z,21.20
2019-01-08T03:57:43.629Z,19.43
2019-01-08T04:00:12.418Z,20.97
2019-01-08T04:02:41.110Z,20.17
2019-01-08T04:05:09.774Z,20.73
2019-01-08T04:07:38.478Z,23.87
2019-01-08T04:10:07.469Z,19.10
2019-01-08T04:12:35.952Z,18.63
2019-01-08T04:15:04.675Z,18.87
2019-01-08T04:17:34.347Z,22.17
2019-01-08T04:20:02.925Z,20.23
2019-01-08T04:22:32.034Z,21.47
2019-01-08T04:25:00.543Z,22.23
2019-01-08T04:27:28.986Z,19.07
2019-01-08T04:29:57.689Z,20.57
2019-01-08T04:32:26.657Z,22.73
2019-01-08T04:34:55.242Z,21.83
2019-01-08T04:37:23.948Z,20.40
2019-01-08T04:39:52.205Z,22.17
2019-01-08T04:42:20.876Z,21.33
2019-01-08T04:44:49.593Z,22.07
2019-01-08T04:47:18.258Z,21.17
2019-01-08T04:49:46.930Z,21.87
2019-01-08T04:52:15.670Z,21.23
2019-01-08T04:54:44.569Z,19.30
2019-01-08T04:57:13.197Z,22.50
2019-01-08T04:59:41.912Z,22.47
2019-01-08T05:02:10.575Z,19.07
2019-01-08T05:04:39.254Z,21.47
2019-01-08T05:07:07.666Z,23.50
2019-01-08T05:09:36.218Z,19.63
2019-01-08T05:12:04.902Z,21.63
2019-01-08T05:14:33.620Z,22.73
2019-01-08T05:17:02.178Z,21.27
2019-01-08T05:19:36.429Z,21.03
2019-01-08T05:22:32.674Z,21.90
2019-01-08T05:25:01.530Z,20.03
2019-01-08T05:27:30.197Z,22.33
2019-01-08T05:30:07.530Z,22.23
2019-01-08T05:32:29.030Z,22.57
2019-01-08T05:34:57.386Z,24.67
2019-01-08T05:37:25.962Z,22.17
2019-01-08T05:39:55.199Z,20.17
2019-01-08T05:42:23.443Z,23.03
2019-01-08T05:44:52.006Z,26.13
2019-01-08T05:47:21.019Z,23.57
2019-01-08T05:49:49.585Z,26.77
2019-01-08T05:52:18.266Z,26.13
2019-01-08T05:54:46.984Z,26.40
2019-01-08T05:57:15.651Z,27.40
2019-01-08T05:59:44.114Z,23.93
2019-01-08T06:02:12.830Z,27.73
2019-01-08T06:04:41.074Z,29.67
2019-01-08T06:07:09.521Z,25.43
2019-01-08T06:09:38.338Z,23.03
2019-01-08T06:12:06.934Z,25.77
2019-01-08T06:14:36.809Z,26.57
2019-01-08T06:17:05.253Z,30.40
2019-01-08T06:19:39.557Z,30.00
2019-01-08T06:22:08.256Z,26.27
2019-01-08T06:24:36.513Z,26.80
2019-01-08T06:27:05.821Z,27.43
2019-01-08T06:29:34.587Z,21.87
2019-01-08T06:32:05.218Z,32.77
2019-01-08T06:34:36.564Z,27.80
2019-01-08T06:37:06.489Z,28.40
2019-01-08T06:39:35.184Z,30.33
2019-01-08T06:42:03.854Z,31.20
2019-01-08T06:44:32.556Z,31.40
2019-01-08T06:47:00.938Z,30.97
2019-01-08T06:49:29.233Z,27.10
2019-01-08T06:51:57.795Z,27.23
2019-01-08T06:54:26.699Z,33.67
2019-01-08T06:56:55.703Z,26.30
2019-01-08T06:59:24.286Z,29.10
2019-01-08T07:01:52.641Z,32.87
2019-01-08T07:04:21.237Z,28.17
2019-01-08T07:06:49.923Z,29.20
2019-01-08T07:09:18.205Z,27.90
2019-01-08T07:11:46.904Z,28.07
2019-01-08T07:14:15.671Z,32.43
2019-01-08T07:16:44.271Z,30.13
2019-01-08T07:19:13.109Z,28.67
2019-01-08T07:21:44.903Z,29.77
2019-01-08T07:24:13.820Z,28.57
2019-01-08T07:26:42.482Z,26.33
2019-01-08T07:29:11.156Z,25.77
2019-01-08T07:31:39.570Z,28.43
2019-01-08T07:34:08.110Z,30.60
2019-01-08T07:36:36.810Z,25.63
2019-01-08T07:39:06.371Z,23.37
2019-01-08T07:41:34.794Z,30.23
2019-01-08T07:44:03.077Z,28.20
2019-01-08T07:46:31.587Z,28.67
2019-01-08T07:49:00.373Z,27.20
2019-01-08T07:51:29.181Z,26.83
2019-01-08T07:53:57.835Z,27.60
2019-01-08T07:56:26.496Z,24.50
2019-01-08T07:58:54.982Z,27.13
2019-01-08T08:01:23.700Z,27.30
2019-01-08T08:03:51.940Z,24.17
2019-01-08T08:06:20.640Z,28.43
2019-01-08T08:08:49.122Z,22.43
2019-01-08T08:11:17.388Z,26.83
2019-01-08T08:13:45.863Z,30.00
2019-01-08T08:16:15.292Z,28.53
2019-01-08T08:18:43.847Z,26.77
2019-01-08T08:21:12.547Z,27.57
2019-01-08T08:23:41.574Z,27.43
2019-01-08T08:26:10.395Z,23.30
2019-01-08T08:28:38.788Z,23.90
2019-01-08T08:31:07.307Z,24.27
2019-01-08T08:33:35.758Z,21.87
2019-01-08T08:36:04.444Z,23.27
2019-01-08T08:38:32.936Z,21.10
2019-01-08T08:41:01.895Z,21.60
2019-01-08T08:43:30.491Z,26.17
2019-01-08T08:45:59.217Z,25.80
2019-01-08T08:48:27.867Z,21.37
2019-01-08T08:50:56.556Z,28.77
2019-01-08T08:53:24.852Z,27.07
2019-01-08T08:55:53.523Z,23.97
2019-01-08T08:58:22.217Z,24.80
2019-01-08T09:00:50.891Z,23.47
2019-01-08T09:03:19.588Z,28.53
2019-01-08T09:05:48.051Z,19.17
2019-01-08T09:08:16.466Z,19.90
2019-01-08T09:10:45.016Z,20.40
2019-01-08T09:13:13.765Z,17.73
2019-01-08T09:15:42.406Z,20.53
2019-01-08T09:18:10.668Z,20.90
2019-01-08T09:20:39.043Z,21.07
2019-01-08T09:23:07.650Z,22.00
2019-01-08T09:25:37.127Z,15.80
2019-01-08T09:28:05.517Z,15.30
2019-01-08T09:30:34.133Z,21.37
2019-01-08T09:33:02.989Z,14.70
2019-01-08T09:35:31.852Z,15.63
2019-01-08T09:38:00.591Z,16.13
2019-01-08T09:40:28.934Z,17.23
2019-01-08T09:42:57.789Z,15.70
2019-01-08T09:45:26.324Z,16.77
2019-01-08T09:47:54.894Z,16.13
2019-01-08T09:50:30.882Z,17.10
2019-01-08T09:52:59.418Z,14.50
2019-01-08T09:55:34.506Z,17.10
2019-01-08T09:58:03.146Z,15.63
2019-01-08T10:00:31.850Z,14.37
2019-01-08T10:03:00.542Z,16.43
2019-01-08T10:05:29.199Z,15.73
2019-01-08T10:07:57.907Z,16.67
2019-01-08T10:10:27.433Z,18.57
2019-01-08T10:12:56.079Z,19.40
2019-01-08T10:15:30.207Z,14.67
2019-01-08T10:18:05.458Z,19.33
2019-01-08T10:20:33.753Z,16.83
2019-01-08T10:23:09.886Z,18.20
2019-01-08T10:25:32.324Z,23.30
2019-01-08T10:28:00.856Z,19.60
2019-01-08T10:30:32.353Z,23.57
2019-01-08T10:33:01.062Z,22.77
2019-01-08T10:35:33.776Z,23.43
2019-01-08T10:38:02.601Z,23.60
2019-01-08T10:40:31.283Z,17.07
2019-01-08T10:42:59.654Z,20.20
2019-01-08T10:45:30.122Z,21.07
2019-01-08T10:47:58.757Z,21.83
2019-01-08T10:50:27.502Z,17.20
2019-01-08T10:52:56.149Z,17.23
2019-01-08T10:55:24.955Z,16.53
2019-01-08T10:57:53.830Z,21.80
2019-01-08T11:00:31.934Z,22.53
2019-01-08T11:02:59.071Z,23.07
2019-01-08T11:05:27.357Z,17.40
2019-01-08T11:07:56.081Z,21.47
2019-01-08T11:10:24.710Z,24.80
2019-01-08T11:12:53.408Z,14.03
2019-01-08T11:15:22.113Z,21.13
2019-01-08T11:17:50.372Z,19.70
2019-01-08T11:20:19.076Z,23.00
2019-01-08T11:22:47.912Z,18.50
2019-01-08T11:25:16.330Z,20.00
2019-01-08T11:27:44.698Z,15.30
2019-01-08T11:30:18.864Z,18.70
2019-01-08T11:32:48.415Z,16.33
2019-01-08T11:35:17.100Z,16.20
2019-01-08T11:37:45.796Z,15.80
2019-01-08T11:40:21.192Z,19.63
2019-01-08T11:42:49.647Z,21.93
2019-01-08T11:45:17.989Z,20.07
2019-01-08T11:47:47.901Z,19.30
2019-01-08T11:50:16.297Z,23.23
2019-01-08T11:52:45.073Z,17.90
2019-01-08T11:55:13.774Z,17.97
2019-01-08T11:57:42.463Z,16.50
2019-01-08T12:00:12.586Z,18.27
2019-01-08T12:02:47.761Z,15.33
2019-01-08T12:05:11.399Z,18.07
2019-01-08T12:07:40.056Z,15.77
2019-01-08T12:10:08.451Z,15.37
2019-01-08T12:12:37.292Z,14.00
2019-01-08T12:15:07.131Z,16.30
2019-01-08T12:17:35.821Z,12.47
2019-01-08T12:20:05.673Z,18.10
2019-01-08T12:22:40.807Z,12.47
2019-01-08T12:25:07.359Z,12.27
2019-01-08T12:27:36.294Z,14.67
2019-01-08T12:30:05.815Z,16.93
2019-01-08T12:32:34.799Z,15.93
2019-01-08T12:35:02.629Z,16.33
2019-01-08T12:37:30.995Z,12.27
2019-01-08T12:39:58.932Z,14.93
2019-01-08T12:42:27.699Z,14.10
2019-01-08T12:44:56.164Z,13.30
2019-01-08T12:47:24.605Z,14.03
2019-01-08T12:49:54.444Z,12.30
2019-01-08T12:52:22.935Z,13.53
2019-01-08T12:54:51.636Z,13.50
2019-01-08T12:57:20.315Z,16.40
2019-01-08T12:59:50.223Z,9.53
2019-01-08T13:02:20.083Z,12.50
2019-01-08T13:04:48.637Z,13.93
2019-01-08T13:07:17.317Z,12.57
2019-01-08T13:09:46.021Z,11.67
2019-01-08T13:12:14.684Z,13.47
2019-01-08T13:14:43.357Z,13.90
2019-01-08T13:17:13.091Z,10.10
2019-01-08T13:19:41.761Z,16.90
2019-01-08T13:22:10.439Z,10.30
2019-01-08T13:24:39.965Z,12.03
2019-01-08T13:27:08.652Z,14.43
2019-01-08T13:29:37.320Z,13.83
2019-01-08T13:32:06.382Z,10.07
2019-01-08T13:34:34.904Z,14.40
2019-01-08T13:37:04.630Z,11.33
2019-01-08T13:39:33.125Z,13.00
2019-01-08T13:42:01.567Z,16.60
2019-01-08T13:44:30.249Z,13.97
2019-01-08T13:46:58.777Z,13.63
2019-01-08T13:49:27.634Z,14.50
2019-01-08T13:51:56.115Z,15.60
2019-01-08T13:54:24.416Z,11.43
2019-01-08T13:56:53.064Z,12.27
2019-01-08T13:59:21.746Z,12.83
2019-01-08T14:01:50.685Z,13.40
2019-01-08T14:04:19.337Z,16.47
2019-01-08T14:06:49.160Z,13.37
2019-01-08T14:09:17.771Z,8.80
2019-01-08T14:11:46.396Z,10.93
2019-01-08T14:14:15.209Z,13.30
2019-01-08T14:16:44.250Z,12.97
2019-01-08T14:19:13.475Z,15.80
2019-01-08T14:21:41.876Z,11.43
2019-01-08T14:24:11.929Z,14.07
2019-01-08T14:26:40.586Z,12.37
2019-01-08T14:29:09.060Z,13.00
2019-01-08T14:31:38.282Z,10.07
2019-01-08T14:34:07.047Z,12.13
2019-01-08T14:36:35.622Z,12.43
2019-01-08T14:39:05.377Z,10.73
2019-01-08T14:41:34.258Z,11.87
2019-01-08T14:44:03.016Z,10.80
2019-01-08T14:46:31.726Z,14.17
2019-01-08T14:49:01.382Z,17.20
2019-01-08T14:51:29.971Z,13.47
2019-01-08T14:53:58.519Z,13.13
2019-01-08T14:56:27.233Z,13.37
2019-01-08T14:58:55.930Z,13.67
2019-01-08T15:01:24.937Z,14.40
2019-01-08T15:03:53.409Z,13.40
2019-01-08T15:06:21.880Z,11.97
2019-01-08T15:08:50.416Z,17.60
2019-01-08T15:11:18.748Z,13.73
2019-01-08T15:13:51.570Z,16.57
2019-01-08T15:16:21.100Z,19.37
2019-01-08T15:18:49.402Z,19.80
2019-01-08T15:21:18.193Z,20.63
2019-01-08T15:23:47.641Z,16.33
2019-01-08T15:26:16.381Z,13.27
2019-01-08T15:28:44.866Z,12.13
2019-01-08T15:31:13.199Z,13.77
2019-01-08T15:33:41.818Z,12.53
2019-01-08T15:36:10.215Z,12.90
2019-01-08T15:38:38.815Z,13.80
2019-01-08T15:41:07.882Z,12.77
2019-01-08T15:43:36.156Z,15.27
2019-01-08T15:46:04.460Z,14.87
2019-01-08T15:48:33.194Z,12.00
2019-01-08T15:51:02.010Z,13.20
2019-01-08T15:53:30.718Z,20.77
2019-01-08T15:55:59.387Z,14.87
2019-01-08T15:58:27.650Z,16.50
2019-01-08T16:00:56.365Z,15.07
2019-01-08T16:03:25.025Z,17.40
2019-01-08T16:05:58.834Z,14.47
2019-01-08T16:08:27.928Z,16.00
2019-01-08T16:10:56.471Z,14.97
2019-01-08T16:13:24.818Z,13.43
2019-01-08T16:15:53.566Z,13.63
2019-01-08T16:18:22.261Z,14.50
2019-01-08T16:20:50.971Z,17.90
2019-01-08T16:23:19.629Z,13.80
2019-01-08T16:25:48.340Z,15.70
2019-01-08T16:28:16.930Z,19.30
2019-01-08T16:30:45.483Z,12.93
2019-01-08T16:33:16.150Z,17.03
2019-01-08T16:35:43.891Z,15.97
2019-01-08T16:38:12.558Z,15.57
2019-01-08T16:40:42.278Z,13.37
2019-01-08T16:43:11.000Z,14.53
2019-01-08T16:45:39.642Z,13.70
2019-01-08T16:48:07.933Z,19.17
2019-01-08T16:50:36.966Z,17.00
2019-01-08T16:53:05.449Z,19.90
2019-01-08T16:55:34.004Z,14.43
2019-01-08T16:58:02.981Z,21.00
2019-01-08T17:00:31.967Z,15.37
2019-01-08T17:03:00.255Z,18.17
2019-01-08T17:05:28.971Z,19.97
2019-01-08T17:07:57.919Z,20.73
2019-01-08T17:10:26.417Z,15.07
2019-01-08T17:12:55.222Z,19.30
2019-01-08T17:15:24.153Z,22.03
2019-01-08T17:17:52.480Z,27.47
2019-01-08T17:20:21.272Z,20.13
2019-01-08T17:22:49.918Z,20.27
2019-01-08T17:25:18.896Z,20.50
2019-01-08T17:27:47.857Z,17.00
2019-01-08T17:30:16.092Z,21.23
2019-01-08T17:32:44.872Z,32.00
2019-01-08T17:35:13.588Z,25.83
2019-01-08T17:37:46.734Z,25.70
2019-01-08T17:40:15.467Z,19.73
2019-01-08T17:42:44.115Z,23.63
2019-01-08T17:45:12.613Z,22.33
2019-01-08T17:47:41.322Z,23.77
2019-01-08T17:50:09.679Z,20.77
2019-01-08T17:52:38.880Z,20.23
2019-01-08T17:55:07.566Z,16.57
2019-01-08T17:57:36.349Z,13.33
2019-01-08T18:00:08.308Z,16.67
2019-01-08T18:02:37.093Z,16.07
2019-01-08T18:05:05.351Z,13.07
2019-01-08T18:07:34.128Z,14.50
2019-01-08T18:10:02.836Z,14.37
2019-01-08T18:12:34.196Z,17.77
2019-01-08T18:15:03.143Z,27.23
2019-01-08T18:17:31.448Z,27.57
2019-01-08T18:20:00.187Z,31.40
2019-01-08T18:22:28.838Z,28.80
2019-01-08T18:24:57.525Z,27.87
2019-01-08T18:27:26.228Z,22.00
2019-01-08T18:29:54.898Z,19.90
2019-01-08T18:32:23.560Z,17.47
2019-01-08T18:34:52.273Z,19.03
2019-01-08T18:37:20.952Z,21.60
2019-01-08T18:39:49.669Z,27.03
2019-01-08T18:42:18.382Z,19.80
2019-01-08T18:44:46.801Z,26.07
2019-01-08T18:47:15.307Z,32.90
2019-01-08T18:49:44.258Z,31.13
2019-01-08T18:52:12.664Z,26.93
2019-01-08T18:54:41.357Z,27.37
2019-01-08T18:57:09.873Z,33.60
2019-01-08T18:59:38.506Z,32.33
2019-01-08T19:02:06.882Z,29.87
2019-01-08T19:04:35.511Z,24.97
2019-01-08T19:07:04.365Z,29.80
2019-01-08T19:09:37.792Z,25.13
2019-01-08T19:12:14.850Z,21.00
2019-01-08T19:14:44.034Z,19.50
2019-01-08T19:17:13.216Z,20.37
2019-01-08T19:19:41.986Z,20.53
2019-01-08T19:22:10.627Z,22.13
2019-01-08T19:24:39.116Z,20.27
2019-01-08T19:27:07.494Z,20.70
2019-01-08T19:29:36.382Z,21.37
2019-01-08T19:32:05.133Z,22.60
2019-01-08T19:34:33.873Z,25.87
2019-01-08T19:37:08.363Z,25.00
2019-01-08T19:39:37.150Z,26.50
2019-01-08T19:42:05.785Z,24.17
2019-01-08T19:44:34.119Z,24.77
2019-01-08T19:47:02.576Z,21.00
2019-01-08T19:49:31.276Z,21.83
2019-01-08T19:51:59.990Z,26.57
2019-01-08T19:54:28.458Z,23.23
2019-01-08T19:56:57.109Z,26.33
2019-01-08T19:59:25.749Z,20.97
2019-01-08T20:01:54.522Z,23.30
2019-01-08T20:04:23.878Z,22.03
2019-01-08T20:06:52.492Z,19.87
2019-01-08T20:09:25.531Z,20.30
2019-01-08T20:11:51.092Z,22.97
2019-01-08T20:14:20.533Z,23.10
2019-01-08T20:16:49.284Z,22.50
2019-01-08T20:19:17.773Z,21.27
2019-01-08T20:21:46.438Z,21.07
2019-01-08T20:24:15.093Z,24.67
2019-01-08T20:26:43.585Z,28.73
2019-01-08T20:29:12.288Z,21.03
2019-01-08T20:31:40.749Z,26.53
2019-01-08T20:34:09.446Z,22.20
2019-01-08T20:36:38.143Z,27.60
2019-01-08T20:39:10.657Z,24.23
2019-01-08T20:41:39.418Z,21.27
2019-01-08T20:44:07.853Z,23.63
2019-01-08T20:46:36.537Z,20.27
2019-01-08T20:49:05.250Z,20.43
2019-01-08T20:51:33.714Z,18.03
2019-01-08T20:54:02.246Z,22.47
2019-01-08T20:56:31.339Z,22.43
2019-01-08T20:58:59.765Z,21.50
2019-01-08T21:01:28.444Z,20.60
2019-01-08T21:03:57.145Z,21.60
2019-01-08T21:06:25.817Z,26.90
2019-01-08T21:08:54.520Z,28.37
2019-01-08T21:11:23.227Z,29.60
2019-01-08T21:13:51.491Z,28.50
2019-01-08T21:16:21.482Z,28.53
2019-01-08T21:18:50.423Z,26.77
2019-01-08T21:21:19.129Z,24.63
2019-01-08T21:23:49.602Z,22.63
2019-01-08T21:26:18.789Z,27.63
2019-01-08T21:28:47.472Z,26.87
2019-01-08T21:31:16.376Z,27.83
2019-01-08T21:33:44.865Z,21.23
2019-01-08T21:36:13.795Z,24.00
2019-01-08T21:38:43.035Z,22.60
2019-01-08T21:41:13.829Z,24.17
2019-01-08T21:43:42.469Z,26.57
2019-01-08T21:46:12.170Z,23.23
2019-01-08T21:48:40.894Z,23.73
2019-01-08T21:51:09.750Z,19.67
2019-01-08T21:53:38.435Z,22.27
2019-01-08T21:56:07.129Z,21.90
2019-01-08T21:58:35.378Z,27.83
2019-01-08T22:01:04.069Z,27.10
2019-01-08T22:03:32.791Z,29.77
2019-01-08T22:06:01.442Z,27.60
2019-01-08T22:08:30.129Z,27.20
2019-01-08T22:10:58.838Z,27.93
2019-01-08T22:13:29.469Z,32.77
2019-01-08T22:15:57.930Z,44.93
2019-01-08T22:18:26.437Z,42.30
2019-01-08T22:20:55.811Z,39.77
2019-01-08T22:23:24.196Z,37.50
2019-01-08T22:25:52.580Z,31.13
2019-01-08T22:28:21.262Z,29.63
2019-01-08T22:30:49.512Z,34.93
2019-01-08T22:33:18.225Z,28.07
2019-01-08T22:35:46.889Z,22.97
2019-01-08T22:38:15.584Z,25.10
2019-01-08T22:40:44.593Z,23.13
2019-01-08T22:43:19.312Z,25.17
2019-01-08T22:45:48.001Z,24.20
2019-01-08T22:48:16.260Z,22.47
2019-01-08T22:50:45.296Z,22.03
2019-01-08T22:53:14.360Z,24.83
2019-01-08T22:55:42.932Z,24.47
2019-01-08T22:58:11.304Z,24.93
2019-01-08T23:00:58.009Z,22.23
2019-01-08T23:03:30.536Z,22.37
2019-01-08T23:05:59.193Z,21.07
2019-01-08T23:08:27.625Z,25.07
2019-01-08T23:10:55.830Z,25.33
2019-01-08T23:13:24.423Z,22.23
2019-01-08T23:15:53.306Z,26.43
2019-01-08T23:18:22.582Z,27.40
2019-01-08T23:20:51.305Z,28.43
2019-01-08T23:23:20.030Z,23.70
2019-01-08T23:25:49.462Z,20.00
2019-01-08T23:28:18.192Z,23.20
2019-01-08T23:30:46.846Z,23.63
2019-01-08T23:33:15.545Z,19.90
2019-01-08T23:35:44.241Z,16.60
2019-01-08T23:38:12.696Z,23.97
2019-01-08T23:40:41.093Z,17.50
2019-01-08T23:43:09.891Z,19.47
2019-01-08T23:45:44.089Z,18.30
2019-01-08T23:48:12.481Z,16.83
2019-01-08T23:50:41.037Z,24.90
2019-01-08T23:53:23.913Z,27.80
2019-01-08T23:55:54.234Z,27.53
2019-01-08T23:58:22.662Z,23.90
